createdAt,value
2018-08-08T00:00:33.778Z,22.20
2018-08-08T00:03:03.578Z,22.10
2018-08-08T00:05:33.288Z,22.10
2018-08-08T00:08:03.226Z,22.00
2018-08-08T00:10:32.980Z,22.00
2018-08-08T00:13:02.700Z,21.90
2018-08-08T00:15:32.394Z,21.90
2018-08-08T00:18:02.344Z,21.80
2018-08-08T00:20:32.098Z,21.70
2018-08-08T00:23:01.860Z,21.60
2018-08-08T00:25:31.604Z,21.60
2018-08-08T00:28:01.430Z,21.60
2018-08-08T00:30:31.199Z,21.50
2018-08-08T00:33:00.955Z,21.60
2018-08-08T00:35:30.820Z,21.60
2018-08-08T00:38:00.562Z,21.50
2018-08-08T00:40:30.286Z,21.50
2018-08-08T00:43:00.007Z,21.50
2018-08-08T00:45:29.787Z,21.50
2018-08-08T00:47:59.643Z,21.50
2018-08-08T00:50:29.355Z,21.50
2018-08-08T00:52:59.135Z,21.40
2018-08-08T00:55:29.154Z,21.40
2018-08-08T00:57:58.879Z,21.40
2018-08-08T01:00:28.621Z,21.40
2018-08-08T01:02:58.338Z,21.40
2018-08-08T01:05:28.106Z,21.30
2018-08-08T01:07:57.846Z,21.20
2018-08-08T01:10:28.087Z,21.10
2018-08-08T01:12:57.834Z,21.10
2018-08-08T01:15:27.578Z,21.00
2018-08-08T01:17:57.580Z,21.00
2018-08-08T01:20:27.334Z,21.00
2018-08-08T01:22:57.195Z,21.00
2018-08-08T01:25:26.894Z,21.00
2018-08-08T01:27:56.684Z,21.10
2018-08-08T01:30:26.427Z,21.10
2018-08-08T01:32:56.227Z,21.10
2018-08-08T01:35:26.082Z,21.10
2018-08-08T01:37:55.831Z,21.10
2018-08-08T01:40:25.670Z,21.00
2018-08-08T01:42:55.433Z,21.00
2018-08-08T01:45:25.295Z,20.90
2018-08-08T01:47:55.031Z,20.80
2018-08-08T01:50:24.844Z,20.80
2018-08-08T01:52:54.611Z,20.80
2018-08-08T01:55:24.319Z,20.70
2018-08-08T01:57:54.068Z,20.60
2018-08-08T02:00:23.763Z,20.70
2018-08-08T02:02:53.501Z,20.70
2018-08-08T02:05:23.322Z,20.70
2018-08-08T02:07:53.194Z,20.70
2018-08-08T02:10:23.449Z,20.70
2018-08-08T02:12:53.244Z,20.70
2018-08-08T02:15:23.090Z,20.70
2018-08-08T02:17:52.789Z,20.80
2018-08-08T02:20:22.542Z,20.80
2018-08-08T02:22:52.332Z,20.80
2018-08-08T02:25:22.181Z,20.80
2018-08-08T02:27:51.916Z,20.80
2018-08-08T02:30:22.794Z,20.70
2018-08-08T02:32:53.261Z,20.80
2018-08-08T02:35:23.158Z,20.80
2018-08-08T02:37:52.898Z,20.80
2018-08-08T02:40:22.612Z,20.80
2018-08-08T02:42:52.301Z,20.80
2018-08-08T02:45:22.027Z,20.80
2018-08-08T02:47:51.766Z,20.80
2018-08-08T02:50:21.615Z,20.80
2018-08-08T02:52:51.471Z,20.80
2018-08-08T02:55:21.208Z,20.80
2018-08-08T02:57:50.970Z,20.80
2018-08-08T03:00:21.099Z,20.70
2018-08-08T03:02:50.807Z,20.60
2018-08-08T03:05:20.566Z,20.60
2018-08-08T03:07:50.331Z,20.60
2018-08-08T03:10:20.191Z,20.50
2018-08-08T03:12:50.070Z,20.50
2018-08-08T03:15:20.418Z,20.50
2018-08-08T03:17:50.139Z,20.50
2018-08-08T03:20:19.828Z,20.60
2018-08-08T03:22:49.536Z,20.60
2018-08-08T03:25:19.329Z,20.70
2018-08-08T03:27:49.063Z,20.70
2018-08-08T03:30:20.930Z,20.70
2018-08-08T03:32:50.863Z,20.70
2018-08-08T03:35:21.163Z,20.70
2018-08-08T03:37:50.901Z,20.70
2018-08-08T03:40:20.689Z,20.70
2018-08-08T03:42:50.446Z,20.70
2018-08-08T03:45:20.159Z,20.60
2018-08-08T03:47:49.904Z,20.50
2018-08-08T03:50:19.730Z,20.50
2018-08-08T03:52:49.575Z,20.50
2018-08-08T03:55:19.270Z,20.50
2018-08-08T03:57:49.015Z,20.50
2018-08-08T04:00:20.535Z,20.50
2018-08-08T04:02:50.693Z,20.50
2018-08-08T04:05:20.320Z,20.40
2018-08-08T04:07:50.051Z,20.40
2018-08-08T04:10:20.285Z,20.50
2018-08-08T04:12:50.194Z,20.50
2018-08-08T04:15:20.315Z,20.50
2018-08-08T04:17:50.043Z,20.50
2018-08-08T04:20:19.799Z,20.50
2018-08-08T04:22:49.521Z,20.50
2018-08-08T04:25:19.230Z,20.50
2018-08-08T04:27:48.966Z,20.50
2018-08-08T04:30:20.102Z,20.50
2018-08-08T04:32:49.911Z,20.40
2018-08-08T04:35:19.684Z,20.40
2018-08-08T04:37:49.532Z,20.40
2018-08-08T04:40:20.091Z,20.30
2018-08-08T04:42:50.277Z,20.40
2018-08-08T04:45:20.148Z,20.40
2018-08-08T04:47:49.944Z,20.50
2018-08-08T04:50:19.702Z,20.50
2018-08-08T04:52:49.523Z,20.50
2018-08-08T04:55:19.259Z,20.60
2018-08-08T04:57:49.051Z,20.70
2018-08-08T05:00:19.156Z,20.80
2018-08-08T05:02:49.170Z,20.90
2018-08-08T05:05:18.923Z,20.90
2018-08-08T05:07:48.809Z,20.90
2018-08-08T05:10:18.794Z,21.00
2018-08-08T05:12:48.627Z,21.10
2018-08-08T05:15:19.265Z,21.10
2018-08-08T05:17:49.791Z,21.10
2018-08-08T05:20:19.610Z,21.20
2018-08-08T05:22:49.614Z,21.20
2018-08-08T05:25:19.402Z,21.20
2018-08-08T05:27:49.247Z,21.30
2018-08-08T05:30:20.290Z,21.30
2018-08-08T05:32:50.066Z,21.30
2018-08-08T05:35:20.657Z,21.40
2018-08-08T05:37:50.399Z,21.60
2018-08-08T05:40:22.497Z,21.70
2018-08-08T05:42:53.422Z,21.70
2018-08-08T05:45:24.133Z,21.80
2018-08-08T05:47:55.098Z,21.90
2018-08-08T05:50:24.876Z,21.90
2018-08-08T05:52:54.578Z,22.00
2018-08-08T05:55:24.323Z,22.10
2018-08-08T05:57:54.079Z,22.30
2018-08-08T06:00:26.025Z,22.40
2018-08-08T06:02:55.823Z,22.50
2018-08-08T06:05:25.626Z,22.70
2018-08-08T06:07:55.740Z,22.80
2018-08-08T06:10:25.505Z,22.90
2018-08-08T06:12:55.229Z,23.00
2018-08-08T06:15:24.959Z,23.10
2018-08-08T06:17:54.783Z,23.20
2018-08-08T06:20:24.487Z,23.20
2018-08-08T06:22:54.236Z,23.30
2018-08-08T06:25:24.023Z,23.20
2018-08-08T06:27:53.891Z,23.20
2018-08-08T06:30:24.975Z,23.20
2018-08-08T06:32:55.777Z,23.20
2018-08-08T06:35:27.282Z,23.20
2018-08-08T06:37:57.767Z,23.20
2018-08-08T06:40:27.688Z,23.30
2018-08-08T06:42:57.572Z,23.50
2018-08-08T06:45:27.814Z,23.70
2018-08-08T06:47:57.570Z,23.90
2018-08-08T06:50:27.287Z,24.00
2018-08-08T06:52:57.086Z,24.20
2018-08-08T06:55:26.942Z,24.30
2018-08-08T06:57:56.817Z,24.40
2018-08-08T07:00:29.066Z,24.60
2018-08-08T07:02:59.061Z,24.70
2018-08-08T07:05:28.840Z,24.90
2018-08-08T07:07:58.711Z,24.90
2018-08-08T07:10:28.833Z,24.90
2018-08-08T07:12:58.590Z,24.90
2018-08-08T07:15:28.342Z,24.90
2018-08-08T07:17:58.286Z,24.80
2018-08-08T07:20:28.063Z,24.70
2018-08-08T07:22:57.830Z,24.70
2018-08-08T07:25:27.851Z,24.70
2018-08-08T07:27:57.610Z,24.70
2018-08-08T07:30:27.334Z,24.80
2018-08-08T07:32:57.039Z,24.80
2018-08-08T07:35:26.885Z,24.90
2018-08-08T07:37:56.675Z,24.90
2018-08-08T07:40:26.416Z,24.90
2018-08-08T07:42:56.248Z,24.80
2018-08-08T07:45:27.179Z,24.80
2018-08-08T07:47:56.910Z,24.90
2018-08-08T07:50:26.673Z,25.10
2018-08-08T07:52:56.486Z,25.10
2018-08-08T07:55:26.232Z,25.20
2018-08-08T07:57:56.151Z,25.30
2018-08-08T08:00:29.432Z,25.40
2018-08-08T08:03:00.189Z,25.40
2018-08-08T08:05:29.921Z,25.30
2018-08-08T08:07:59.709Z,25.30
2018-08-08T08:10:29.419Z,25.40
2018-08-08T08:12:59.195Z,25.40
2018-08-08T08:15:28.921Z,25.40
2018-08-08T08:17:58.666Z,25.50
2018-08-08T08:20:28.410Z,25.30
2018-08-08T08:22:58.171Z,25.30
2018-08-08T08:25:28.100Z,25.10
2018-08-08T08:27:57.824Z,25.00
2018-08-08T08:30:27.699Z,24.80
2018-08-08T08:32:57.566Z,24.90
2018-08-08T08:35:27.317Z,25.00
2018-08-08T08:37:57.060Z,25.10
2018-08-08T08:40:26.838Z,25.10
2018-08-08T08:42:57.011Z,25.20
2018-08-08T08:45:26.755Z,25.20
2018-08-08T08:47:56.497Z,25.00
2018-08-08T08:50:26.332Z,24.90
2018-08-08T08:52:55.980Z,24.90
2018-08-08T08:55:25.690Z,24.70
2018-08-08T08:57:55.405Z,24.70
2018-08-08T09:00:25.168Z,24.60
2018-08-08T09:02:54.941Z,24.50
2018-08-08T09:05:24.649Z,24.30
2018-08-08T09:07:54.390Z,24.10
2018-08-08T09:10:24.079Z,24.00
2018-08-08T09:12:53.961Z,24.00
2018-08-08T09:15:23.691Z,23.80
2018-08-08T09:17:53.391Z,23.60
2018-08-08T09:20:23.122Z,23.50
2018-08-08T09:22:52.978Z,23.60
2018-08-08T09:25:22.697Z,23.40
2018-08-08T09:27:52.484Z,23.30
2018-08-08T09:30:22.389Z,23.40
2018-08-08T09:32:52.235Z,23.30
2018-08-08T09:35:21.935Z,23.30
2018-08-08T09:37:51.769Z,23.20
2018-08-08T09:40:21.508Z,23.20
2018-08-08T09:42:51.142Z,23.40
2018-08-08T09:45:21.090Z,23.70
2018-08-08T09:47:50.827Z,23.80
2018-08-08T09:50:20.576Z,24.00
2018-08-08T09:52:50.279Z,24.10
2018-08-08T09:55:19.995Z,24.30
2018-08-08T09:57:49.727Z,24.30
2018-08-08T10:00:24.506Z,24.30
2018-08-08T10:04:03.679Z,24.50
2018-08-08T10:06:33.658Z,24.70
2018-08-08T10:09:03.534Z,24.90
2018-08-08T10:11:33.686Z,24.90
2018-08-08T10:14:03.696Z,24.90
2018-08-08T10:16:33.489Z,24.90
2018-08-08T10:19:03.376Z,25.10
2018-08-08T10:21:33.165Z,25.30
2018-08-08T10:24:02.903Z,25.40
2018-08-08T10:26:32.630Z,25.60
2018-08-08T10:29:02.374Z,25.90
2018-08-08T10:31:32.228Z,26.10
2018-08-08T10:34:02.079Z,26.40
2018-08-08T10:36:32.034Z,26.50
2018-08-08T10:39:01.791Z,26.50
2018-08-08T10:41:31.547Z,26.60
2018-08-08T10:44:01.243Z,26.70
2018-08-08T10:46:31.195Z,26.50
2018-08-08T10:49:00.935Z,26.50
2018-08-08T10:51:30.674Z,26.50
2018-08-08T10:54:00.451Z,26.60
2018-08-08T10:56:30.163Z,26.60
2018-08-08T10:58:59.883Z,26.70
2018-08-08T11:01:29.625Z,26.70
2018-08-08T11:03:59.362Z,26.80
2018-08-08T11:06:29.130Z,26.60
2018-08-08T11:08:58.927Z,26.50
2018-08-08T11:11:28.618Z,26.40
2018-08-08T11:13:58.355Z,26.40
2018-08-08T11:16:28.083Z,26.40
2018-08-08T11:18:59.059Z,26.40
2018-08-08T11:21:28.799Z,26.40
2018-08-08T11:23:58.746Z,26.50
2018-08-08T11:26:28.407Z,26.60
2018-08-08T11:28:58.298Z,26.60
2018-08-08T11:31:28.164Z,26.60
2018-08-08T11:33:57.908Z,26.70
2018-08-08T11:36:27.686Z,26.80
2018-08-08T11:38:57.496Z,26.90
2018-08-08T11:41:27.321Z,26.90
2018-08-08T11:43:57.175Z,27.00
2018-08-08T11:46:27.030Z,27.10
2018-08-08T11:48:56.778Z,27.20
2018-08-08T11:51:26.807Z,27.30
2018-08-08T11:53:56.542Z,27.20
2018-08-08T11:56:26.255Z,27.30
2018-08-08T11:58:56.124Z,27.30
2018-08-08T12:01:26.434Z,27.40
2018-08-08T12:03:56.243Z,27.50
2018-08-08T12:06:26.383Z,27.50
2018-08-08T12:08:56.140Z,27.70
2018-08-08T12:11:26.106Z,27.90
2018-08-08T12:13:55.987Z,28.00
2018-08-08T12:16:25.690Z,27.90
2018-08-08T12:18:55.501Z,28.00
2018-08-08T12:21:25.427Z,28.00
2018-08-08T12:23:55.139Z,28.10
2018-08-08T12:26:24.868Z,28.10
2018-08-08T12:28:54.696Z,28.20
2018-08-08T12:31:24.413Z,28.20
2018-08-08T12:33:54.122Z,28.10
2018-08-08T12:36:23.838Z,28.20
2018-08-08T12:38:53.623Z,28.40
2018-08-08T12:41:23.351Z,28.60
2018-08-08T12:43:53.073Z,28.90
2018-08-08T12:46:22.815Z,29.00
2018-08-08T12:48:52.691Z,29.10
2018-08-08T12:51:22.422Z,29.10
2018-08-08T12:53:52.136Z,29.20
2018-08-08T12:56:21.999Z,29.50
2018-08-08T12:58:51.870Z,29.80
2018-08-08T13:01:21.621Z,30.10
2018-08-08T13:03:51.515Z,30.30
2018-08-08T13:06:21.255Z,30.30
2018-08-08T13:08:51.114Z,30.40
2018-08-08T13:11:21.182Z,30.20
2018-08-08T13:13:51.255Z,29.90
2018-08-08T13:16:21.025Z,29.60
2018-08-08T13:18:50.779Z,29.70
2018-08-08T13:21:20.487Z,29.60
2018-08-08T13:23:50.248Z,29.90
2018-08-08T13:26:19.980Z,30.20
2018-08-08T13:28:49.705Z,30.50
2018-08-08T13:31:19.385Z,30.60
2018-08-08T13:33:49.124Z,30.50
2018-08-08T13:36:19.183Z,30.40
2018-08-08T13:38:49.030Z,30.10
2018-08-08T13:41:18.880Z,29.90
2018-08-08T13:43:48.580Z,29.50
2018-08-08T13:46:18.445Z,29.40
2018-08-08T13:48:48.207Z,29.30
2018-08-08T13:51:17.947Z,29.10
2018-08-08T13:53:47.695Z,29.20
2018-08-08T13:56:17.457Z,29.40
2018-08-08T13:58:47.262Z,29.70
2018-08-08T14:01:17.041Z,30.00
2018-08-08T14:03:48.158Z,30.30
2018-08-08T14:06:36.973Z,30.30
2018-08-08T14:09:10.973Z,30.30
2018-08-08T14:11:40.697Z,30.50
2018-08-08T14:14:10.463Z,30.70
2018-08-08T14:16:40.090Z,30.80
2018-08-08T14:19:09.811Z,30.90
2018-08-08T14:21:39.540Z,30.90
2018-08-08T14:24:09.246Z,31.00
2018-08-08T14:26:38.972Z,31.10
2018-08-08T14:29:08.702Z,31.10
2018-08-08T14:31:38.491Z,31.20
2018-08-08T14:34:10.095Z,31.30
2018-08-08T14:36:43.235Z,31.30
2018-08-08T14:39:14.869Z,31.30
2018-08-08T14:41:44.644Z,31.50
2018-08-08T14:44:14.565Z,31.70
2018-08-08T14:46:44.470Z,31.90
2018-08-08T14:49:14.186Z,32.10
2018-08-08T14:51:44.099Z,32.40
2018-08-08T14:54:13.950Z,32.50
2018-08-08T14:56:43.921Z,32.80
2018-08-08T14:59:13.665Z,32.90
2018-08-08T15:01:43.414Z,33.00
2018-08-08T15:04:13.165Z,33.30
2018-08-08T15:06:43.147Z,34.00
2018-08-08T15:09:14.322Z,34.80
2018-08-08T15:11:44.470Z,35.90
2018-08-08T15:14:14.284Z,37.30
2018-08-08T15:16:44.078Z,38.60
2018-08-08T15:19:13.827Z,39.70
2018-08-08T15:21:43.574Z,39.50
2018-08-08T15:24:13.458Z,40.50
2018-08-08T15:26:43.387Z,42.40
2018-08-08T15:29:13.087Z,43.70
2018-08-08T15:31:43.023Z,45.10
2018-08-08T15:34:12.669Z,45.90
2018-08-08T15:36:42.491Z,46.90
2018-08-08T15:39:12.102Z,48.20
2018-08-08T15:41:41.906Z,49.40
2018-08-08T15:44:11.645Z,50.00
2018-08-08T15:46:41.394Z,50.70
2018-08-08T15:49:11.145Z,51.90
2018-08-08T15:51:40.898Z,51.30
2018-08-08T15:54:10.653Z,50.80
2018-08-08T15:56:40.494Z,51.30
2018-08-08T15:59:10.291Z,51.70
2018-08-08T16:01:41.070Z,51.80
2018-08-08T16:04:10.871Z,51.90
2018-08-08T16:06:40.572Z,52.30
2018-08-08T16:09:11.618Z,52.80
2018-08-08T16:11:41.535Z,51.70
2018-08-08T16:14:11.220Z,51.20
2018-08-08T16:16:40.934Z,50.60
2018-08-08T16:19:10.643Z,49.60
2018-08-08T16:21:40.427Z,48.00
2018-08-08T16:24:10.177Z,45.60
2018-08-08T16:26:39.952Z,43.70
2018-08-08T16:29:09.811Z,42.00
2018-08-08T16:31:39.596Z,40.50
2018-08-08T16:34:09.410Z,38.70
2018-08-08T16:36:39.670Z,37.20
2018-08-08T16:39:11.026Z,35.90
2018-08-08T16:41:41.248Z,35.10
2018-08-08T16:44:11.011Z,34.20
2018-08-08T16:46:40.800Z,33.60
2018-08-08T16:49:10.667Z,33.20
2018-08-08T16:51:40.399Z,32.90
2018-08-08T16:54:10.259Z,32.70
2018-08-08T16:56:40.031Z,32.30
2018-08-08T16:59:11.301Z,32.20
2018-08-08T17:01:41.147Z,32.00
2018-08-08T17:04:10.899Z,31.80
2018-08-08T17:06:40.626Z,31.50
2018-08-08T17:09:11.205Z,31.50
2018-08-08T17:11:41.111Z,31.40
2018-08-08T17:14:10.824Z,31.30
2018-08-08T17:16:40.534Z,31.20
2018-08-08T17:19:10.393Z,31.20
2018-08-08T17:21:40.067Z,31.00
2018-08-08T17:24:10.371Z,31.00
2018-08-08T17:26:40.077Z,30.90
2018-08-08T17:29:09.794Z,30.90
2018-08-08T17:31:39.502Z,30.90
2018-08-08T17:34:09.295Z,30.80
2018-08-08T17:36:38.962Z,30.70
2018-08-08T17:39:09.814Z,30.60
2018-08-08T17:41:39.838Z,30.50
2018-08-08T17:44:09.609Z,30.50
2018-08-08T17:46:39.327Z,30.40
2018-08-08T17:49:09.092Z,30.30
2018-08-08T17:51:38.967Z,30.20
2018-08-08T17:54:08.635Z,30.10
2018-08-08T17:56:38.502Z,30.00
2018-08-08T17:59:08.217Z,29.90
2018-08-08T18:01:37.986Z,29.80
2018-08-08T18:04:07.857Z,29.70
2018-08-08T18:06:37.644Z,29.60
2018-08-08T18:09:08.878Z,29.50
2018-08-08T18:11:38.674Z,29.40
2018-08-08T18:14:08.363Z,29.30
2018-08-08T18:16:38.118Z,29.30
2018-08-08T18:19:07.961Z,29.10
2018-08-08T18:21:37.710Z,29.00
2018-08-08T18:24:07.541Z,28.90
2018-08-08T18:26:37.290Z,28.80
2018-08-08T18:29:07.273Z,28.70
2018-08-08T18:31:37.545Z,28.50
2018-08-08T18:34:07.351Z,28.40
2018-08-08T18:36:37.108Z,28.30
2018-08-08T18:39:08.695Z,28.20
2018-08-08T18:41:38.804Z,28.10
2018-08-08T18:44:08.623Z,27.90
2018-08-08T18:46:38.349Z,27.90
2018-08-08T18:49:08.171Z,27.80
2018-08-08T18:51:37.910Z,27.70
2018-08-08T18:54:08.205Z,27.70
2018-08-08T18:56:38.086Z,27.60
2018-08-08T18:59:07.816Z,27.50
2018-08-08T19:01:37.704Z,27.50
2018-08-08T19:04:07.491Z,27.40
2018-08-08T19:06:37.290Z,27.40
2018-08-08T19:09:08.260Z,27.40
2018-08-08T19:11:38.003Z,27.30
2018-08-08T19:14:07.810Z,27.10
2018-08-08T19:16:37.591Z,27.00
2018-08-08T19:19:07.544Z,26.90
2018-08-08T19:21:37.316Z,26.80
2018-08-08T19:24:07.111Z,26.70
2018-08-08T19:26:36.905Z,26.60
2018-08-08T19:29:06.782Z,26.50
2018-08-08T19:31:36.542Z,26.40
2018-08-08T19:34:06.473Z,26.30
2018-08-08T19:36:36.272Z,26.30
2018-08-08T19:39:08.440Z,26.20
2018-08-08T19:41:38.249Z,26.20
2018-08-08T19:44:08.266Z,26.10
2018-08-08T19:46:38.315Z,26.10
2018-08-08T19:49:08.312Z,26.00
2018-08-08T19:51:38.397Z,25.90
2018-08-08T19:54:08.343Z,25.90
2018-08-08T19:56:38.263Z,25.80
2018-08-08T19:59:07.980Z,25.70
2018-08-08T20:01:38.145Z,25.60
2018-08-08T20:04:07.920Z,25.70
2018-08-08T20:06:37.802Z,25.60
2018-08-08T20:09:09.995Z,25.50
2018-08-08T20:11:39.917Z,25.40
2018-08-08T20:14:09.679Z,25.40
2018-08-08T20:16:39.419Z,25.30
2018-08-08T20:19:09.223Z,25.30
2018-08-08T20:21:38.934Z,25.20
2018-08-08T20:24:08.734Z,25.20
2018-08-08T20:26:38.488Z,25.20
2018-08-08T20:29:08.230Z,25.20
2018-08-08T20:31:37.944Z,25.10
2018-08-08T20:34:07.758Z,25.10
2018-08-08T20:36:37.627Z,25.10
2018-08-08T20:39:09.075Z,25.00
2018-08-08T20:41:39.143Z,24.90
2018-08-08T20:44:09.490Z,24.80
2018-08-08T20:46:39.368Z,24.70
2018-08-08T20:49:09.130Z,24.70
2018-08-08T20:51:38.863Z,24.60
2018-08-08T20:54:08.918Z,24.60
2018-08-08T20:56:38.714Z,24.60
2018-08-08T20:59:08.442Z,24.50
2018-08-08T21:01:38.215Z,24.40
2018-08-08T21:04:07.954Z,24.40
2018-08-08T21:06:37.841Z,24.40
2018-08-08T21:09:08.873Z,24.30
2018-08-08T21:11:38.807Z,24.30
2018-08-08T21:14:08.787Z,24.30
2018-08-08T21:16:38.478Z,24.20
2018-08-08T21:19:08.349Z,24.20
2018-08-08T21:21:38.187Z,24.20
2018-08-08T21:24:07.907Z,24.20
2018-08-08T21:26:37.666Z,24.20
2018-08-08T21:29:07.427Z,24.20
2018-08-08T21:31:37.154Z,24.10
2018-08-08T21:34:06.990Z,24.10
2018-08-08T21:36:37.136Z,24.00
2018-08-08T21:39:09.187Z,24.00
2018-08-08T21:41:39.247Z,24.00
2018-08-08T21:44:09.339Z,24.00
2018-08-08T21:46:39.044Z,24.00
2018-08-08T21:49:08.782Z,24.00
2018-08-08T21:51:38.511Z,23.90
2018-08-08T21:54:19.570Z,23.90
2018-08-08T21:57:00.755Z,23.80
2018-08-08T21:59:41.918Z,23.80
2018-08-08T22:02:22.987Z,23.70
2018-08-08T22:05:04.229Z,23.60
2018-08-08T22:07:45.824Z,23.50
2018-08-08T22:10:27.008Z,23.50
2018-08-08T22:13:08.152Z,23.50
2018-08-08T22:15:49.310Z,23.40
2018-08-08T22:18:30.443Z,23.40
2018-08-08T22:21:00.175Z,23.30
2018-08-08T22:23:29.954Z,23.20
2018-08-08T22:25:59.722Z,23.20
2018-08-08T22:28:29.479Z,23.20
2018-08-08T22:30:59.243Z,23.20
2018-08-08T22:33:29.050Z,23.20
2018-08-08T22:35:58.942Z,23.20
2018-08-08T22:38:28.684Z,23.20
2018-08-08T22:40:58.443Z,23.20
2018-08-08T22:43:28.257Z,23.20
2018-08-08T22:45:57.975Z,23.20
2018-08-08T22:48:27.718Z,23.10
2018-08-08T22:50:57.419Z,23.10
2018-08-08T22:53:27.163Z,23.10
2018-08-08T22:55:56.850Z,23.10
2018-08-08T22:58:26.603Z,23.00
2018-08-08T23:00:56.471Z,23.00
2018-08-08T23:03:26.198Z,23.00
2018-08-08T23:05:56.162Z,22.90
2018-08-08T23:08:26.687Z,22.80
2018-08-08T23:10:56.460Z,22.70
2018-08-08T23:13:26.183Z,22.70
2018-08-08T23:15:55.907Z,22.70
2018-08-08T23:18:25.995Z,22.70
2018-08-08T23:20:55.942Z,22.60
2018-08-08T23:23:25.639Z,22.60
2018-08-08T23:25:55.358Z,22.60
2018-08-08T23:28:25.067Z,22.60
2018-08-08T23:30:55.101Z,22.60
2018-08-08T23:33:24.826Z,22.60
2018-08-08T23:35:54.578Z,22.60
2018-08-08T23:38:24.334Z,22.50
2018-08-08T23:40:54.282Z,22.60
2018-08-08T23:43:23.995Z,22.60
2018-08-08T23:45:53.820Z,22.60
2018-08-08T23:48:23.545Z,22.60
2018-08-08T23:50:53.243Z,22.70
2018-08-08T23:53:22.975Z,22.70
2018-08-08T23:55:52.851Z,22.70
2018-08-08T23:58:22.686Z,22.70
